sensor_id;sensor_type;location;lat;lon;timestamp;P1;durP1;ratioP1;P2;durP2;ratioP2
3249;SDS011;1637;42.020;23.992;2022-12-18T00:02:15;51.77;;;29.43;;
3249;SDS011;1637;42.020;23.992;2022-12-18T00:04:42;52.70;;;27.27;;
3249;SDS011;1637;42.020;23.992;2022-12-18T00:07:09;47.13;;;25.87;;
3249;SDS011;1637;42.020;23.992;2022-12-18T00:09:37;27.60;;;16.13;;
3249;SDS011;1637;42.020;23.992;2022-12-18T00:12:04;29.70;;;15.00;;
3249;SDS011;1637;42.020;23.992;2022-12-18T00:14:31;26.43;;;15.40;;
3249;SDS011;1637;42.020;23.992;2022-12-18T00:16:58;12.77;;;6.90;;
3249;SDS011;1637;42.020;23.992;2022-12-18T00:19:25;9.03;;;4.47;;
3249;SDS011;1637;42.020;23.992;2022-12-18T00:21:52;5.30;;;3.73;;
3249;SDS011;1637;42.020;23.992;2022-12-18T00:24:19;4.00;;;2.97;;
3249;SDS011;1637;42.020;23.992;2022-12-18T00:26:47;6.17;;;3.40;;
3249;SDS011;1637;42.020;23.992;2022-12-18T00:29:14;2.67;;;2.43;;
3249;SDS011;1637;42.020;23.992;2022-12-18T00:31:41;5.50;;;3.00;;
3249;SDS011;1637;42.020;23.992;2022-12-18T00:34:09;17.77;;;11.30;;
3249;SDS011;1637;42.020;23.992;2022-12-18T00:36:38;30.43;;;16.80;;
3249;SDS011;1637;42.020;23.992;2022-12-18T00:39:05;28.90;;;17.30;;
3249;SDS011;1637;42.020;23.992;2022-12-18T00:41:32;28.17;;;15.80;;
3249;SDS011;1637;42.020;23.992;2022-12-18T00:44:18;16.60;;;11.67;;
3249;SDS011;1637;42.020;23.992;2022-12-18T00:46:45;30.53;;;16.40;;
3249;SDS011;1637;42.020;23.992;2022-12-18T00:49:14;31.00;;;18.27;;
3249;SDS011;1637;42.020;23.992;2022-12-18T00:51:41;28.03;;;18.10;;
3249;SDS011;1637;42.020;23.992;2022-12-18T00:54:08;29.40;;;16.57;;
3249;SDS011;1637;42.020;23.992;2022-12-18T00:56:36;29.70;;;18.03;;
3249;SDS011;1637;42.020;23.992;2022-12-18T00:59:04;37.90;;;21.90;;
3249;SDS011;1637;42.020;23.992;2022-12-18T01:01:32;42.90;;;24.37;;
3249;SDS011;1637;42.020;23.992;2022-12-18T01:03:59;40.60;;;24.00;;
3249;SDS011;1637;42.020;23.992;2022-12-18T01:06:26;47.13;;;28.27;;
3249;SDS011;1637;42.020;23.992;2022-12-18T01:08:53;60.63;;;29.93;;
3249;SDS011;1637;42.020;23.992;2022-12-18T01:11:21;73.93;;;35.23;;
3249;SDS011;1637;42.020;23.992;2022-12-18T01:13:48;73.40;;;34.97;;
3249;SDS011;1637;42.020;23.992;2022-12-18T01:16:15;63.20;;;34.40;;
3249;SDS011;1637;42.020;23.992;2022-12-18T01:18:44;66.83;;;31.60;;
3249;SDS011;1637;42.020;23.992;2022-12-18T01:21:14;64.97;;;32.80;;
3249;SDS011;1637;42.020;23.992;2022-12-18T01:23:42;61.77;;;32.23;;
3249;SDS011;1637;42.020;23.992;2022-12-18T01:26:12;66.00;;;30.67;;
3249;SDS011;1637;42.020;23.992;2022-12-18T01:28:40;60.47;;;25.97;;
3249;SDS011;1637;42.020;23.992;2022-12-18T01:31:12;53.87;;;27.60;;
3249;SDS011;1637;42.020;23.992;2022-12-18T01:33:41;55.50;;;29.53;;
3249;SDS011;1637;42.020;23.992;2022-12-18T01:36:13;47.57;;;25.83;;
3249;SDS011;1637;42.020;23.992;2022-12-18T01:38:41;46.57;;;25.23;;
3249;SDS011;1637;42.020;23.992;2022-12-18T01:41:08;59.43;;;30.17;;
3249;SDS011;1637;42.020;23.992;2022-12-18T01:43:42;56.40;;;28.77;;
3249;SDS011;1637;42.020;23.992;2022-12-18T01:46:13;57.30;;;26.90;;
3249;SDS011;1637;42.020;23.992;2022-12-18T01:48:42;50.93;;;28.03;;
3249;SDS011;1637;42.020;23.992;2022-12-18T01:51:11;51.10;;;27.30;;
3249;SDS011;1637;42.020;23.992;2022-12-18T01:53:39;49.37;;;26.87;;
3249;SDS011;1637;42.020;23.992;2022-12-18T01:56:07;51.10;;;25.73;;
3249;SDS011;1637;42.020;23.992;2022-12-18T01:58:39;51.53;;;25.87;;
3249;SDS011;1637;42.020;23.992;2022-12-18T02:01:12;33.93;;;19.33;;
3249;SDS011;1637;42.020;23.992;2022-12-18T02:03:40;37.20;;;18.40;;
3249;SDS011;1637;42.020;23.992;2022-12-18T02:06:10;24.97;;;11.83;;
3249;SDS011;1637;42.020;23.992;2022-12-18T02:08:45;22.13;;;12.17;;
3249;SDS011;1637;42.020;23.992;2022-12-18T02:11:19;19.40;;;10.83;;
3249;SDS011;1637;42.020;23.992;2022-12-18T02:13:55;13.87;;;7.77;;
3249;SDS011;1637;42.020;23.992;2022-12-18T02:16:38;14.03;;;7.47;;
3249;SDS011;1637;42.020;23.992;2022-12-18T02:19:14;13.20;;;6.93;;
3249;SDS011;1637;42.020;23.992;2022-12-18T02:21:51;16.90;;;9.23;;
3249;SDS011;1637;42.020;23.992;2022-12-18T02:24:28;13.20;;;6.10;;
3249;SDS011;1637;42.020;23.992;2022-12-18T02:27:02;12.47;;;6.30;;
3249;SDS011;1637;42.020;23.992;2022-12-18T02:29:33;11.47;;;5.33;;
3249;SDS011;1637;42.020;23.992;2022-12-18T02:32:05;21.50;;;5.73;;
3249;SDS011;1637;42.020;23.992;2022-12-18T02:34:37;13.93;;;6.83;;
3249;SDS011;1637;42.020;23.992;2022-12-18T02:37:05;21.40;;;12.27;;
3249;SDS011;1637;42.020;23.992;2022-12-18T02:39:36;35.83;;;13.00;;
3249;SDS011;1637;42.020;23.992;2022-12-18T02:42:06;73.97;;;29.50;;
3249;SDS011;1637;42.020;23.992;2022-12-18T02:44:33;50.30;;;16.83;;
3249;SDS011;1637;42.020;23.992;2022-12-18T02:47:00;54.77;;;15.60;;
3249;SDS011;1637;42.020;23.992;2022-12-18T02:49:30;59.37;;;21.50;;
3249;SDS011;1637;42.020;23.992;2022-12-18T02:52:05;50.27;;;22.17;;
3249;SDS011;1637;42.020;23.992;2022-12-18T02:54:42;37.73;;;13.97;;
3249;SDS011;1637;42.020;23.992;2022-12-18T02:57:24;35.10;;;15.87;;
3249;SDS011;1637;42.020;23.992;2022-12-18T03:00:01;45.97;;;18.03;;
3249;SDS011;1637;42.020;23.992;2022-12-18T03:02:33;120.40;;;25.70;;
3249;SDS011;1637;42.020;23.992;2022-12-18T03:05:05;202.53;;;41.00;;
3249;SDS011;1637;42.020;23.992;2022-12-18T03:07:37;65.60;;;17.30;;
3249;SDS011;1637;42.020;23.992;2022-12-18T03:10:08;113.07;;;15.57;;
3249;SDS011;1637;42.020;23.992;2022-12-18T03:12:42;54.47;;;12.13;;
3249;SDS011;1637;42.020;23.992;2022-12-18T03:15:13;41.90;;;14.80;;
3249;SDS011;1637;42.020;23.992;2022-12-18T03:17:44;45.70;;;16.63;;
3249;SDS011;1637;42.020;23.992;2022-12-18T03:20:17;88.03;;;18.50;;
3249;SDS011;1637;42.020;23.992;2022-12-18T03:22:46;75.23;;;17.07;;
3249;SDS011;1637;42.020;23.992;2022-12-18T03:25:17;63.20;;;14.17;;
3249;SDS011;1637;42.020;23.992;2022-12-18T03:27:48;27.40;;;13.27;;
3249;SDS011;1637;42.020;23.992;2022-12-18T03:30:18;26.90;;;13.03;;
3249;SDS011;1637;42.020;23.992;2022-12-18T03:32:47;62.50;;;14.10;;
3249;SDS011;1637;42.020;23.992;2022-12-18T03:35:18;46.10;;;13.20;;
3249;SDS011;1637;42.020;23.992;2022-12-18T03:37:47;41.67;;;13.10;;
3249;SDS011;1637;42.020;23.992;2022-12-18T03:40:15;57.80;;;12.73;;
3249;SDS011;1637;42.020;23.992;2022-12-18T03:42:44;36.30;;;13.20;;
3249;SDS011;1637;42.020;23.992;2022-12-18T03:45:18;42.40;;;14.00;;
3249;SDS011;1637;42.020;23.992;2022-12-18T03:47:51;61.73;;;14.67;;
3249;SDS011;1637;42.020;23.992;2022-12-18T03:50:27;28.33;;;12.30;;
3249;SDS011;1637;42.020;23.992;2022-12-18T03:53:02;41.80;;;12.33;;
3249;SDS011;1637;42.020;23.992;2022-12-18T03:55:39;39.27;;;10.00;;
3249;SDS011;1637;42.020;23.992;2022-12-18T03:58:08;32.70;;;10.70;;
3249;SDS011;1637;42.020;23.992;2022-12-18T04:00:39;42.93;;;10.33;;
3249;SDS011;1637;42.020;23.992;2022-12-18T04:03:07;180.77;;;44.00;;
3249;SDS011;1637;42.020;23.992;2022-12-18T04:05:35;71.77;;;20.33;;
3249;SDS011;1637;42.020;23.992;2022-12-18T04:08:03;111.30;;;41.10;;
3249;SDS011;1637;42.020;23.992;2022-12-18T04:10:31;52.90;;;24.03;;
3249;SDS011;1637;42.020;23.992;2022-12-18T04:13:00;39.83;;;13.10;;
3249;SDS011;1637;42.020;23.992;2022-12-18T04:15:28;30.30;;;12.50;;
3249;SDS011;1637;42.020;23.992;2022-12-18T04:17:55;25.57;;;12.50;;
3249;SDS011;1637;42.020;23.992;2022-12-18T04:20:22;32.60;;;15.70;;
3249;SDS011;1637;42.020;23.992;2022-12-18T04:22:48;55.87;;;22.67;;
3249;SDS011;1637;42.020;23.992;2022-12-18T04:25:15;88.63;;;21.10;;
3249;SDS011;1637;42.020;23.992;2022-12-18T04:27:42;74.07;;;25.47;;
3249;SDS011;1637;42.020;23.992;2022-12-18T04:30:09;158.90;;;54.57;;
3249;SDS011;1637;42.020;23.992;2022-12-18T04:32:38;138.27;;;48.70;;
3249;SDS011;1637;42.020;23.992;2022-12-18T04:35:05;194.97;;;50.23;;
3249;SDS011;1637;42.020;23.992;2022-12-18T04:37:35;80.80;;;37.20;;
3249;SDS011;1637;42.020;23.992;2022-12-18T04:40:02;66.23;;;29.27;;
3249;SDS011;1637;42.020;23.992;2022-12-18T04:42:30;143.13;;;46.83;;
3249;SDS011;1637;42.020;23.992;2022-12-18T04:44:57;89.17;;;30.93;;
3249;SDS011;1637;42.020;23.992;2022-12-18T04:47:24;75.10;;;30.33;;
3249;SDS011;1637;42.020;23.992;2022-12-18T04:49:52;66.00;;;24.97;;
3249;SDS011;1637;42.020;23.992;2022-12-18T04:52:19;137.97;;;34.80;;
3249;SDS011;1637;42.020;23.992;2022-12-18T04:54:46;65.23;;;18.67;;
3249;SDS011;1637;42.020;23.992;2022-12-18T04:57:12;58.83;;;18.47;;
3249;SDS011;1637;42.020;23.992;2022-12-18T04:59:39;60.23;;;20.40;;
3249;SDS011;1637;42.020;23.992;2022-12-18T05:02:06;108.60;;;23.53;;
3249;SDS011;1637;42.020;23.992;2022-12-18T05:04:33;54.20;;;17.70;;
3249;SDS011;1637;42.020;23.992;2022-12-18T05:07:01;86.90;;;20.00;;
3249;SDS011;1637;42.020;23.992;2022-12-18T05:09:28;57.63;;;19.33;;
3249;SDS011;1637;42.020;23.992;2022-12-18T05:11:54;75.43;;;17.60;;
3249;SDS011;1637;42.020;23.992;2022-12-18T05:14:21;57.33;;;18.70;;
3249;SDS011;1637;42.020;23.992;2022-12-18T05:16:48;99.20;;;31.40;;
3249;SDS011;1637;42.020;23.992;2022-12-18T05:19:15;82.90;;;27.30;;
3249;SDS011;1637;42.020;23.992;2022-12-18T05:21:42;54.77;;;22.37;;
3249;SDS011;1637;42.020;23.992;2022-12-18T05:24:10;36.03;;;18.47;;
3249;SDS011;1637;42.020;23.992;2022-12-18T05:26:37;73.00;;;34.00;;
3249;SDS011;1637;42.020;23.992;2022-12-18T05:29:03;53.20;;;24.50;;
3249;SDS011;1637;42.020;23.992;2022-12-18T05:31:30;90.37;;;35.83;;
3249;SDS011;1637;42.020;23.992;2022-12-18T05:34:05;57.53;;;26.70;;
3249;SDS011;1637;42.020;23.992;2022-12-18T05:36:34;46.97;;;18.93;;
3249;SDS011;1637;42.020;23.992;2022-12-18T05:39:01;31.50;;;17.13;;
3249;SDS011;1637;42.020;23.992;2022-12-18T05:41:30;32.87;;;16.93;;
3249;SDS011;1637;42.020;23.992;2022-12-18T05:43:57;45.33;;;17.67;;
3249;SDS011;1637;42.020;23.992;2022-12-18T05:46:24;44.63;;;18.27;;
3249;SDS011;1637;42.020;23.992;2022-12-18T05:48:52;29.50;;;15.30;;
3249;SDS011;1637;42.020;23.992;2022-12-18T05:51:19;52.20;;;23.10;;
3249;SDS011;1637;42.020;23.992;2022-12-18T05:53:47;103.17;;;21.03;;
3249;SDS011;1637;42.020;23.992;2022-12-18T05:56:15;55.83;;;21.23;;
3249;SDS011;1637;42.020;23.992;2022-12-18T05:58:45;39.83;;;16.93;;
3249;SDS011;1637;42.020;23.992;2022-12-18T06:01:14;36.40;;;18.20;;
3249;SDS011;1637;42.020;23.992;2022-12-18T06:03:42;66.60;;;22.80;;
3249;SDS011;1637;42.020;23.992;2022-12-18T06:06:13;94.27;;;30.30;;
3249;SDS011;1637;42.020;23.992;2022-12-18T06:08:41;57.30;;;25.30;;
3249;SDS011;1637;42.020;23.992;2022-12-18T06:11:08;55.50;;;25.00;;
3249;SDS011;1637;42.020;23.992;2022-12-18T06:13:35;51.10;;;19.60;;
3249;SDS011;1637;42.020;23.992;2022-12-18T06:16:04;58.87;;;22.93;;
3249;SDS011;1637;42.020;23.992;2022-12-18T06:18:32;50.23;;;15.17;;
3249;SDS011;1637;42.020;23.992;2022-12-18T06:20:59;35.87;;;15.77;;
3249;SDS011;1637;42.020;23.992;2022-12-18T06:23:27;44.23;;;15.73;;
3249;SDS011;1637;42.020;23.992;2022-12-18T06:25:54;50.17;;;15.57;;
3249;SDS011;1637;42.020;23.992;2022-12-18T06:28:21;30.80;;;13.47;;
3249;SDS011;1637;42.020;23.992;2022-12-18T06:30:48;49.00;;;19.70;;
3249;SDS011;1637;42.020;23.992;2022-12-18T06:33:16;92.97;;;32.30;;
3249;SDS011;1637;42.020;23.992;2022-12-18T06:35:43;206.83;;;51.20;;
3249;SDS011;1637;42.020;23.992;2022-12-18T06:38:10;75.47;;;23.93;;
3249;SDS011;1637;42.020;23.992;2022-12-18T06:40:37;62.17;;;21.43;;
3249;SDS011;1637;42.020;23.992;2022-12-18T06:43:05;80.67;;;26.00;;
3249;SDS011;1637;42.020;23.992;2022-12-18T06:45:32;36.50;;;17.70;;
3249;SDS011;1637;42.020;23.992;2022-12-18T06:47:59;59.63;;;24.37;;
3249;SDS011;1637;42.020;23.992;2022-12-18T06:50:27;32.50;;;15.17;;
3249;SDS011;1637;42.020;23.992;2022-12-18T06:52:54;58.73;;;26.73;;
3249;SDS011;1637;42.020;23.992;2022-12-18T06:55:21;66.63;;;29.70;;
3249;SDS011;1637;42.020;23.992;2022-12-18T06:57:48;82.37;;;37.17;;
3249;SDS011;1637;42.020;23.992;2022-12-18T07:00:15;142.57;;;60.93;;
3249;SDS011;1637;42.020;23.992;2022-12-18T07:02:42;117.47;;;51.80;;
3249;SDS011;1637;42.020;23.992;2022-12-18T07:05:09;89.70;;;39.50;;
3249;SDS011;1637;42.020;23.992;2022-12-18T07:07:37;85.57;;;40.50;;
3249;SDS011;1637;42.020;23.992;2022-12-18T07:10:04;96.00;;;42.50;;
3249;SDS011;1637;42.020;23.992;2022-12-18T07:12:31;98.83;;;42.37;;
3249;SDS011;1637;42.020;23.992;2022-12-18T07:14:58;138.00;;;54.67;;
3249;SDS011;1637;42.020;23.992;2022-12-18T07:17:25;120.40;;;49.23;;
3249;SDS011;1637;42.020;23.992;2022-12-18T07:19:52;133.07;;;51.27;;
3249;SDS011;1637;42.020;23.992;2022-12-18T07:22:19;115.37;;;48.50;;
3249;SDS011;1637;42.020;23.992;2022-12-18T07:24:47;112.00;;;44.63;;
3249;SDS011;1637;42.020;23.992;2022-12-18T07:27:14;143.87;;;62.10;;
3249;SDS011;1637;42.020;23.992;2022-12-18T07:29:40;172.10;;;73.40;;
3249;SDS011;1637;42.020;23.992;2022-12-18T07:32:07;136.70;;;59.47;;
3249;SDS011;1637;42.020;23.992;2022-12-18T07:34:34;131.87;;;60.70;;
3249;SDS011;1637;42.020;23.992;2022-12-18T07:37:01;137.77;;;62.83;;
3249;SDS011;1637;42.020;23.992;2022-12-18T07:39:28;69.90;;;33.10;;
3249;SDS011;1637;42.020;23.992;2022-12-18T07:41:56;86.77;;;44.07;;
3249;SDS011;1637;42.020;23.992;2022-12-18T07:44:41;101.77;;;47.87;;
3249;SDS011;1637;42.020;23.992;2022-12-18T07:47:07;73.30;;;37.53;;
3249;SDS011;1637;42.020;23.992;2022-12-18T07:49:34;113.07;;;50.80;;
3249;SDS011;1637;42.020;23.992;2022-12-18T07:52:01;101.70;;;50.87;;
3249;SDS011;1637;42.020;23.992;2022-12-18T07:54:28;104.33;;;50.23;;
3249;SDS011;1637;42.020;23.992;2022-12-18T07:56:56;109.53;;;53.43;;
3249;SDS011;1637;42.020;23.992;2022-12-18T07:59:23;104.93;;;50.40;;
3249;SDS011;1637;42.020;23.992;2022-12-18T08:01:50;98.82;;;50.30;;
3249;SDS011;1637;42.020;23.992;2022-12-18T08:04:17;99.27;;;49.87;;
3249;SDS011;1637;42.020;23.992;2022-12-18T08:06:43;157.70;;;77.77;;
3249;SDS011;1637;42.020;23.992;2022-12-18T08:09:10;121.60;;;59.57;;
3249;SDS011;1637;42.020;23.992;2022-12-18T08:11:37;132.07;;;58.00;;
3249;SDS011;1637;42.020;23.992;2022-12-18T08:14:05;114.77;;;58.77;;
3249;SDS011;1637;42.020;23.992;2022-12-18T08:16:32;107.37;;;53.00;;
3249;SDS011;1637;42.020;23.992;2022-12-18T08:18:59;101.40;;;50.17;;
3249;SDS011;1637;42.020;23.992;2022-12-18T08:21:27;104.90;;;48.00;;
3249;SDS011;1637;42.020;23.992;2022-12-18T08:23:55;97.23;;;49.80;;
3249;SDS011;1637;42.020;23.992;2022-12-18T08:26:24;94.53;;;50.30;;
3249;SDS011;1637;42.020;23.992;2022-12-18T08:28:52;110.50;;;59.97;;
3249;SDS011;1637;42.020;23.992;2022-12-18T08:31:21;134.57;;;65.17;;
3249;SDS011;1637;42.020;23.992;2022-12-18T08:33:49;117.80;;;61.70;;
3249;SDS011;1637;42.020;23.992;2022-12-18T08:36:16;114.83;;;58.70;;
3249;SDS011;1637;42.020;23.992;2022-12-18T08:38:43;114.70;;;59.23;;
3249;SDS011;1637;42.020;23.992;2022-12-18T08:41:10;102.97;;;53.97;;
3249;SDS011;1637;42.020;23.992;2022-12-18T08:43:38;100.73;;;55.30;;
3249;SDS011;1637;42.020;23.992;2022-12-18T08:46:25;129.20;;;65.50;;
3249;SDS011;1637;42.020;23.992;2022-12-18T08:48:54;115.23;;;62.90;;
3249;SDS011;1637;42.020;23.992;2022-12-18T08:51:21;117.33;;;58.20;;
3249;SDS011;1637;42.020;23.992;2022-12-18T08:53:48;121.33;;;63.70;;
3249;SDS011;1637;42.020;23.992;2022-12-18T08:56:15;144.03;;;65.60;;
3249;SDS011;1637;42.020;23.992;2022-12-18T08:58:41;113.20;;;62.53;;
3249;SDS011;1637;42.020;23.992;2022-12-18T09:01:09;383.33;;;243.23;;
3249;SDS011;1637;42.020;23.992;2022-12-18T09:03:38;293.17;;;162.70;;
3249;SDS011;1637;42.020;23.992;2022-12-18T09:06:06;97.50;;;56.30;;
3249;SDS011;1637;42.020;23.992;2022-12-18T09:08:34;95.77;;;48.87;;
3249;SDS011;1637;42.020;23.992;2022-12-18T09:11:01;77.60;;;41.33;;
3249;SDS011;1637;42.020;23.992;2022-12-18T09:13:28;74.10;;;40.97;;
3249;SDS011;1637;42.020;23.992;2022-12-18T09:15:55;70.53;;;39.90;;
3249;SDS011;1637;42.020;23.992;2022-12-18T09:18:22;67.03;;;36.90;;
3249;SDS011;1637;42.020;23.992;2022-12-18T09:20:51;63.73;;;36.87;;
3249;SDS011;1637;42.020;23.992;2022-12-18T09:23:18;155.47;;;82.30;;
3249;SDS011;1637;42.020;23.992;2022-12-18T09:25:45;63.43;;;38.40;;
3249;SDS011;1637;42.020;23.992;2022-12-18T09:28:15;62.10;;;37.53;;
3249;SDS011;1637;42.020;23.992;2022-12-18T09:30:43;74.97;;;39.33;;
3249;SDS011;1637;42.020;23.992;2022-12-18T09:33:12;83.20;;;42.43;;
3249;SDS011;1637;42.020;23.992;2022-12-18T09:35:40;64.63;;;34.73;;
3249;SDS011;1637;42.020;23.992;2022-12-18T09:38:11;66.27;;;34.80;;
3249;SDS011;1637;42.020;23.992;2022-12-18T09:40:40;58.43;;;31.70;;
3249;SDS011;1637;42.020;23.992;2022-12-18T09:43:13;69.10;;;39.80;;
3249;SDS011;1637;42.020;23.992;2022-12-18T09:45:45;84.03;;;43.10;;
3249;SDS011;1637;42.020;23.992;2022-12-18T09:48:15;82.40;;;43.13;;
3249;SDS011;1637;42.020;23.992;2022-12-18T09:50:47;64.37;;;34.93;;
3249;SDS011;1637;42.020;23.992;2022-12-18T09:53:17;78.27;;;42.37;;
3249;SDS011;1637;42.020;23.992;2022-12-18T09:55:48;75.60;;;41.93;;
3249;SDS011;1637;42.020;23.992;2022-12-18T09:58:19;104.23;;;46.90;;
3249;SDS011;1637;42.020;23.992;2022-12-18T10:00:51;90.83;;;45.80;;
3249;SDS011;1637;42.020;23.992;2022-12-18T10:03:19;86.93;;;42.47;;
3249;SDS011;1637;42.020;23.992;2022-12-18T10:05:49;73.07;;;37.50;;
3249;SDS011;1637;42.020;23.992;2022-12-18T10:08:29;64.53;;;35.17;;
3249;SDS011;1637;42.020;23.992;2022-12-18T10:11:07;58.63;;;32.70;;
3249;SDS011;1637;42.020;23.992;2022-12-18T10:13:48;59.27;;;30.90;;
3249;SDS011;1637;42.020;23.992;2022-12-18T10:16:19;53.90;;;31.00;;
3249;SDS011;1637;42.020;23.992;2022-12-18T10:19:02;45.87;;;28.07;;
3249;SDS011;1637;42.020;23.992;2022-12-18T10:21:41;44.13;;;25.80;;
3249;SDS011;1637;42.020;23.992;2022-12-18T10:24:18;48.20;;;28.00;;
3249;SDS011;1637;42.020;23.992;2022-12-18T10:26:52;52.23;;;26.20;;
3249;SDS011;1637;42.020;23.992;2022-12-18T10:29:24;46.40;;;28.30;;
3249;SDS011;1637;42.020;23.992;2022-12-18T10:31:51;39.77;;;24.40;;
3249;SDS011;1637;42.020;23.992;2022-12-18T10:34:18;41.47;;;25.07;;
3249;SDS011;1637;42.020;23.992;2022-12-18T10:36:45;41.90;;;24.40;;
3249;SDS011;1637;42.020;23.992;2022-12-18T10:39:14;41.37;;;25.57;;
3249;SDS011;1637;42.020;23.992;2022-12-18T10:41:43;54.13;;;31.40;;
3249;SDS011;1637;42.020;23.992;2022-12-18T10:44:12;67.47;;;41.27;;
3249;SDS011;1637;42.020;23.992;2022-12-18T10:46:45;50.10;;;29.77;;
3249;SDS011;1637;42.020;23.992;2022-12-18T10:52:07;54.23;;;30.33;;
3249;SDS011;1637;42.020;23.992;2022-12-18T10:54:45;62.87;;;31.67;;
3249;SDS011;1637;42.020;23.992;2022-12-18T10:57:17;42.23;;;25.00;;
3249;SDS011;1637;42.020;23.992;2022-12-18T10:59:58;38.37;;;23.20;;
3249;SDS011;1637;42.020;23.992;2022-12-18T11:02:28;33.43;;;21.20;;
3249;SDS011;1637;42.020;23.992;2022-12-18T11:05:01;31.77;;;21.10;;
3249;SDS011;1637;42.020;23.992;2022-12-18T11:07:35;28.60;;;18.53;;
3249;SDS011;1637;42.020;23.992;2022-12-18T11:10:15;29.63;;;18.13;;
3249;SDS011;1637;42.020;23.992;2022-12-18T11:12:45;36.10;;;21.90;;
3249;SDS011;1637;42.020;23.992;2022-12-18T11:15:14;27.67;;;17.77;;
3249;SDS011;1637;42.020;23.992;2022-12-18T11:17:45;31.60;;;19.70;;
3249;SDS011;1637;42.020;23.992;2022-12-18T11:20:23;33.23;;;19.90;;
3249;SDS011;1637;42.020;23.992;2022-12-18T11:22:58;26.17;;;18.20;;
3249;SDS011;1637;42.020;23.992;2022-12-18T11:25:26;38.90;;;19.10;;
3249;SDS011;1637;42.020;23.992;2022-12-18T11:27:55;32.47;;;18.57;;
3249;SDS011;1637;42.020;23.992;2022-12-18T11:30:25;34.10;;;19.90;;
3249;SDS011;1637;42.020;23.992;2022-12-18T11:32:54;31.20;;;17.70;;
3249;SDS011;1637;42.020;23.992;2022-12-18T11:35:27;35.80;;;21.77;;
3249;SDS011;1637;42.020;23.992;2022-12-18T11:38:02;42.57;;;21.47;;
3249;SDS011;1637;42.020;23.992;2022-12-18T11:40:40;31.57;;;19.53;;
3249;SDS011;1637;42.020;23.992;2022-12-18T11:43:13;45.13;;;28.30;;
3249;SDS011;1637;42.020;23.992;2022-12-18T11:45:45;125.07;;;64.90;;
3249;SDS011;1637;42.020;23.992;2022-12-18T11:48:18;186.23;;;96.67;;
3249;SDS011;1637;42.020;23.992;2022-12-18T11:50:49;167.93;;;73.10;;
3249;SDS011;1637;42.020;23.992;2022-12-18T11:53:17;65.17;;;35.73;;
3249;SDS011;1637;42.020;23.992;2022-12-18T11:55:49;109.13;;;49.90;;
3249;SDS011;1637;42.020;23.992;2022-12-18T11:58:30;44.67;;;26.43;;
3249;SDS011;1637;42.020;23.992;2022-12-18T12:01:11;105.03;;;43.20;;
3249;SDS011;1637;42.020;23.992;2022-12-18T12:03:57;28.07;;;15.67;;
3249;SDS011;1637;42.020;23.992;2022-12-18T12:06:39;65.40;;;50.13;;
3249;SDS011;1637;42.020;23.992;2022-12-18T12:09:16;44.83;;;26.77;;
3249;SDS011;1637;42.020;23.992;2022-12-18T12:11:53;46.83;;;26.43;;
3249;SDS011;1637;42.020;23.992;2022-12-18T12:14:34;69.37;;;41.70;;
3249;SDS011;1637;42.020;23.992;2022-12-18T12:17:12;97.67;;;48.20;;
3249;SDS011;1637;42.020;23.992;2022-12-18T12:19:48;52.10;;;28.60;;
3249;SDS011;1637;42.020;23.992;2022-12-18T12:22:22;32.30;;;18.73;;
3249;SDS011;1637;42.020;23.992;2022-12-18T12:25:00;53.30;;;30.60;;
3249;SDS011;1637;42.020;23.992;2022-12-18T12:27:41;35.30;;;20.87;;
3249;SDS011;1637;42.020;23.992;2022-12-18T12:30:18;38.90;;;23.00;;
3249;SDS011;1637;42.020;23.992;2022-12-18T12:35:40;40.10;;;23.53;;
3249;SDS011;1637;42.020;23.992;2022-12-18T12:38:13;36.40;;;21.27;;
3249;SDS011;1637;42.020;23.992;2022-12-18T12:40:47;34.43;;;20.20;;
3249;SDS011;1637;42.020;23.992;2022-12-18T12:43:22;24.40;;;14.47;;
3249;SDS011;1637;42.020;23.992;2022-12-18T12:45:55;12.10;;;9.60;;
3249;SDS011;1637;42.020;23.992;2022-12-18T12:48:36;20.10;;;14.27;;
3249;SDS011;1637;42.020;23.992;2022-12-18T12:51:10;66.27;;;32.73;;
3249;SDS011;1637;42.020;23.992;2022-12-18T12:53:41;61.20;;;40.50;;
3249;SDS011;1637;42.020;23.992;2022-12-18T12:56:10;21.07;;;12.00;;
3249;SDS011;1637;42.020;23.992;2022-12-18T12:58:43;54.17;;;28.97;;
3249;SDS011;1637;42.020;23.992;2022-12-18T13:01:19;19.07;;;11.67;;
3249;SDS011;1637;42.020;23.992;2022-12-18T13:03:56;13.33;;;6.47;;
3249;SDS011;1637;42.020;23.992;2022-12-18T13:06:34;13.13;;;6.50;;
3249;SDS011;1637;42.020;23.992;2022-12-18T13:09:07;9.20;;;5.80;;
3249;SDS011;1637;42.020;23.992;2022-12-18T13:11:37;18.90;;;8.87;;
3249;SDS011;1637;42.020;23.992;2022-12-18T13:14:26;31.93;;;15.53;;
3249;SDS011;1637;42.020;23.992;2022-12-18T13:17:16;14.43;;;7.80;;
3249;SDS011;1637;42.020;23.992;2022-12-18T13:20:02;37.37;;;10.40;;
3249;SDS011;1637;42.020;23.992;2022-12-18T13:22:36;14.77;;;6.90;;
3249;SDS011;1637;42.020;23.992;2022-12-18T13:28:00;10.80;;;7.33;;
3249;SDS011;1637;42.020;23.992;2022-12-18T13:30:51;30.73;;;13.53;;
3249;SDS011;1637;42.020;23.992;2022-12-18T13:36:15;19.50;;;9.93;;
3249;SDS011;1637;42.020;23.992;2022-12-18T13:41:49;16.53;;;7.80;;
3249;SDS011;1637;42.020;23.992;2022-12-18T13:44:24;37.73;;;20.03;;
3249;SDS011;1637;42.020;23.992;2022-12-18T13:46:55;29.83;;;17.80;;
3249;SDS011;1637;42.020;23.992;2022-12-18T13:49:22;104.57;;;50.67;;
3249;SDS011;1637;42.020;23.992;2022-12-18T13:51:54;26.03;;;12.70;;
3249;SDS011;1637;42.020;23.992;2022-12-18T13:54:23;27.67;;;12.97;;
3249;SDS011;1637;42.020;23.992;2022-12-18T13:56:56;44.57;;;24.80;;
3249;SDS011;1637;42.020;23.992;2022-12-18T13:59:23;17.23;;;9.73;;
3249;SDS011;1637;42.020;23.992;2022-12-18T14:01:52;29.70;;;13.30;;
3249;SDS011;1637;42.020;23.992;2022-12-18T14:04:22;26.87;;;13.17;;
3249;SDS011;1637;42.020;23.992;2022-12-18T14:06:54;50.73;;;31.50;;
3249;SDS011;1637;42.020;23.992;2022-12-18T14:09:26;64.67;;;28.63;;
3249;SDS011;1637;42.020;23.992;2022-12-18T14:11:55;60.17;;;32.80;;
3249;SDS011;1637;42.020;23.992;2022-12-18T14:14:44;40.27;;;22.90;;
3249;SDS011;1637;42.020;23.992;2022-12-18T14:17:13;36.20;;;19.17;;
3249;SDS011;1637;42.020;23.992;2022-12-18T14:19:42;44.87;;;23.07;;
3249;SDS011;1637;42.020;23.992;2022-12-18T14:22:16;40.63;;;15.90;;
3249;SDS011;1637;42.020;23.992;2022-12-18T14:24:45;16.20;;;9.30;;
3249;SDS011;1637;42.020;23.992;2022-12-18T14:27:12;83.07;;;37.73;;
3249;SDS011;1637;42.020;23.992;2022-12-18T14:29:46;84.87;;;37.23;;
3249;SDS011;1637;42.020;23.992;2022-12-18T14:32:13;72.57;;;33.53;;
3249;SDS011;1637;42.020;23.992;2022-12-18T14:34:42;36.40;;;15.53;;
3249;SDS011;1637;42.020;23.992;2022-12-18T14:37:10;77.13;;;34.63;;
3249;SDS011;1637;42.020;23.992;2022-12-18T14:39:39;81.93;;;31.73;;
3249;SDS011;1637;42.020;23.992;2022-12-18T14:42:09;24.43;;;13.13;;
3249;SDS011;1637;42.020;23.992;2022-12-18T14:44:36;40.30;;;16.73;;
3249;SDS011;1637;42.020;23.992;2022-12-18T14:47:03;66.37;;;27.63;;
3249;SDS011;1637;42.020;23.992;2022-12-18T14:49:31;40.00;;;22.53;;
3249;SDS011;1637;42.020;23.992;2022-12-18T14:52:02;40.10;;;17.90;;
3249;SDS011;1637;42.020;23.992;2022-12-18T14:54:31;43.23;;;34.97;;
3249;SDS011;1637;42.020;23.992;2022-12-18T14:57:02;101.50;;;20.07;;
3249;SDS011;1637;42.020;23.992;2022-12-18T14:59:30;29.17;;;13.63;;
3249;SDS011;1637;42.020;23.992;2022-12-18T15:01:59;10.60;;;6.80;;
3249;SDS011;1637;42.020;23.992;2022-12-18T15:04:30;9.80;;;5.50;;
3249;SDS011;1637;42.020;23.992;2022-12-18T15:07:11;13.50;;;7.00;;